Wilson Gaeta — 8PTS — position and weather

sailwx.info

Track history (hours):
 
Tides and Currents Weather Stations Pressure Air Temp Water Temp Dewpoint Dewpoint Depression Visibility Wind Speed Wind Dir Waves Ship Positions

Wilson Gaeta

Last reported at 2016-May-30 13:13 UTC. Time now 2016-May-30 18:21 UTC.
Position N 63°46' E 007°20'.

Length 88 m; draft 3.8 m.

Type: Cargo ship. MMSI: 314237000.

Date/timePositionNaut miles runAvg speedWind from/ knotsBaromVisibWave heightAir tempDewpointWater temp
2016-May-30 13:13N 63°46' E 007°20'811.5
2016-May-30 12:33N 63°52' E 007°30'1211.6
2016-May-30 11:33N 64°01' E 007°46'1111.2
2016-May-30 10:33N 64°10' E 008°01'1211.7
2016-May-30 09:33N 64°20' E 008°17'1212.0
2016-May-30 08:33N 64°29' E 008°34'13111.6
2016-May-29 21:11N 66°14' E 011°44'1111.8
2016-May-29 20:16N 66°17' E 012°11'811.7
2016-May-29 19:33N 66°15' E 012°31'5 0.1
2016-May-28 11:33N 66°11' E 012°38'8 8.4
2016-May-28 10:33N 66°16' E 012°22'9 8.6
2016-May-28 09:33N 66°16' E 012°00'9 8.7
2016-May-28 08:33N 66°15' E 011°39'46 8.7
2016-May-28 03:14N 65°40' E 010°24'6 8.8
2016-May-28 02:33N 65°35' E 010°16'9 9.1
2016-May-28 01:33N 65°28' E 010°03'9 9.1
2016-May-28 00:33N 65°21' E 009°50'19 8.7
2016-May-27 22:25N 65°06' E 009°24'8 8.7
2016-May-27 21:33N 64°60' E 009°13'9 8.9
2016-May-27 20:33N 64°52' E 009°01'9 8.8
2016-May-27 19:33N 64°45' E 008°49'9 8.7
2016-May-27 18:32N 64°38' E 008°37'9 8.8
2016-May-27 17:33N 64°31' E 008°24'9 8.8
2016-May-27 16:33N 64°24' E 008°13'9 9.2
2016-May-27 15:33N 64°17' E 007°60'9 8.9
2016-May-27 14:33N 64°09' E 007°48'9 9.2
2016-May-27 13:33N 64°02' E 007°36'10 9.6
2016-May-27 12:33N 63°54' E 007°23'9 9.3
2016-May-27 11:33N 63°47' E 007°10'187 8.4
2016-May-26 13:16N 60°58' E 004°16'7 8.5
2016-May-26 12:30N 60°52' E 004°12'18 9.0
2016-May-26 10:31N 60°35' E 004°02'8 8.7
2016-May-26 09:33N 60°27' E 003°58'8 8.4
2016-May-26 08:33N 60°18' E 003°54'8 8.3
2016-May-26 07:34N 60°11' E 003°49'8 7.7
2016-May-26 06:34N 60°03' E 003°45'7 7.1
2016-May-26 05:33N 59°56' E 003°41'8 7.6
2016-May-26 04:33N 59°49' E 003°37'8 7.5
2016-May-26 03:33N 59°42' E 003°33'7 7.5
2016-May-26 02:33N 59°34' E 003°30'8 7.6
2016-May-26 01:33N 59°27' E 003°26'8 7.6
2016-May-26 00:33N 59°20' E 003°22'300 6.5
2016-May-24 02:33N 54°32' E 000°49'18 9.2
2016-May-24 00:32N 54°14' E 000°38'10 9.7
2016-May-23 23:30N 54°05' E 000°33'1010.1
2016-May-23 22:29N 53°55' E 000°28'1010.3
2016-May-23 21:33N 53°46' E 000°23'1010.0
2016-May-23 20:33N 53°36' E 000°20'8 8.4
2016-May-23 19:34N 53°33' E 000°07'9 9.4
2016-May-23 18:33N 53°37' W 000°08'2 2.2
2016-May-23 17:34N 53°38' W 000°11'0 0.2
2016-May-23 16:32N 53°38' W 000°12'0 0.0
2016-May-23 15:32N 53°38' W 000°12'0 0.0
2016-May-23 14:32N 53°38' W 000°12'0 0.0
2016-May-23 13:26N 53°38' W 000°12'0 0.0
2016-May-23 12:32N 53°38' W 000°12'0 0.0
2016-May-23 11:29N 53°38' W 000°12'0 0.0
2016-May-23 10:32N 53°38' W 000°12'0 0.0
2016-May-23 09:29N 53°38' W 000°12'0 0.0
2016-May-23 08:32N 53°38' W 000°12'0 0.0
2016-May-23 07:29N 53°38' W 000°12'0 0.0
2016-May-23 06:32N 53°38' W 000°12'0 0.0
2016-May-23 05:29N 53°38' W 000°12'0 0.0
2016-May-23 04:32N 53°38' W 000°12'0 0.0
2016-May-23 03:29N 53°38' W 000°12'0 0.0
2016-May-23 02:29N 53°38' W 000°12'0 0.0
2016-May-23 01:32N 53°38' W 000°12'0 0.0
2016-May-23 00:32N 53°38' W 000°12'0 0.0
2016-May-22 23:32N 53°38' W 000°12'0 0.0
2016-May-22 22:32N 53°38' W 000°12'0 0.0
2016-May-22 21:32N 53°38' W 000°12'0 0.0
2016-May-22 20:32N 53°38' W 000°12'0 0.0
2016-May-22 19:29N 53°38' W 000°12'0 0.0
2016-May-22 18:32N 53°38' W 000°12'0 0.0
2016-May-22 17:32N 53°38' W 000°12'0 0.0
2016-May-22 16:32N 53°38' W 000°12'0 0.0
2016-May-22 15:32N 53°38' W 000°12'0 0.0
2016-May-22 14:32N 53°38' W 000°12'0 0.0
2016-May-22 13:32N 53°38' W 000°12'0 0.0
2016-May-22 12:32N 53°38' W 000°12'0 0.0
2016-May-22 11:32N 53°38' W 000°12'0 0.0
2016-May-22 10:32N 53°38' W 000°12'0 0.0
2016-May-22 09:32N 53°38' W 000°12'0 0.0
2016-May-22 08:32N 53°38' W 000°12'0 0.0
2016-May-22 07:32N 53°38' W 000°12'0 0.0
2016-May-22 06:32N 53°38' W 000°12'0 0.0
2016-May-22 05:32N 53°38' W 000°12'0 0.0
2016-May-22 04:32N 53°38' W 000°12'0 0.0
2016-May-22 03:32N 53°38' W 000°12'0 0.0
2016-May-22 02:32N 53°38' W 000°12'0 0.0
2016-May-22 01:32N 53°38' W 000°12'0 0.0
2016-May-22 00:32N 53°38' W 000°12'0 0.0
2016-May-21 23:32N 53°38' W 000°12'0 0.0
2016-May-21 22:32N 53°38' W 000°12'0 0.0
2016-May-21 21:32N 53°38' W 000°12'0 0.0
2016-May-21 20:32N 53°38' W 000°12'0 0.0
2016-May-21 19:32N 53°38' W 000°12'0 0.0
2016-May-21 18:29N 53°38' W 000°12'0 0.0
2016-May-21 17:32N 53°38' W 000°12'0 0.0
2016-May-21 16:32N 53°38' W 000°12'0 0.0
2016-May-21 15:32N 53°38' W 000°12'0 0.0
2016-May-21 14:32N 53°38' W 000°12'0 0.0
2016-May-21 13:32N 53°38' W 000°12'0 0.0
2016-May-21 12:32N 53°38' W 000°12'0 0.0
2016-May-21 11:32N 53°38' W 000°12'0 0.0
2016-May-21 10:32N 53°38' W 000°12'0 0.0
2016-May-21 09:32N 53°38' W 000°12'0 0.0
2016-May-21 08:29N 53°38' W 000°12'0 0.0
2016-May-21 07:32N 53°38' W 000°12'0 0.0
2016-May-21 06:32N 53°38' W 000°12'0 0.0
2016-May-21 05:32N 53°38' W 000°12'0 0.0
2016-May-21 04:32N 53°38' W 000°12'0 0.0
2016-May-21 03:32N 53°38' W 000°12'0 0.0
2016-May-21 02:32N 53°38' W 000°12'0 0.0
2016-May-21 01:32N 53°38' W 000°12'0 0.0
2016-May-21 00:32N 53°38' W 000°12'0 0.0
2016-May-20 23:32N 53°38' W 000°12'0 0.0
2016-May-20 22:32N 53°38' W 000°12'0 0.0
2016-May-20 21:26N 53°38' W 000°12'0 0.0
2016-May-20 20:32N 53°38' W 000°12'0 0.0
2016-May-20 19:32N 53°38' W 000°12'0 0.0
2016-May-20 18:32N 53°38' W 000°12'0 0.0
2016-May-20 17:26N 53°38' W 000°12'0 0.0
2016-May-20 16:23N 53°38' W 000°12'0 0.0
2016-May-20 15:29N 53°38' W 000°12'0 0.1
2016-May-20 14:32N 53°38' W 000°12'0 0.0
2016-May-20 13:29N 53°38' W 000°12'  
Track history (hours):
 
Tides and Currents Weather Stations Pressure Air Temp Water Temp Dewpoint Dewpoint Depression Visibility Wind Speed Wind Dir Waves Ship Positions

Wilson Gaeta

Last reported at 2016-May-30 13:13 UTC. Time now 2016-May-30 18:21 UTC.
Position N 63°46' E 007°20'.

Length 88 m; draft 3.8 m.

Type: Cargo ship. MMSI: 314237000.

Date/timePositionNaut miles runAvg speedWind from/ knotsBaromVisibWave heightAir tempDewpointWater temp
2016-May-30 13:13N 63°46' E 007°20'811.5
2016-May-30 12:33N 63°52' E 007°30'1211.6
2016-May-30 11:33N 64°01' E 007°46'1111.2
2016-May-30 10:33N 64°10' E 008°01'1211.7
2016-May-30 09:33N 64°20' E 008°17'1212.0
2016-May-30 08:33N 64°29' E 008°34'13111.6
2016-May-29 21:11N 66°14' E 011°44'1111.8
2016-May-29 20:16N 66°17' E 012°11'811.7
2016-May-29 19:33N 66°15' E 012°31'5 0.1
2016-May-28 11:33N 66°11' E 012°38'8 8.4
2016-May-28 10:33N 66°16' E 012°22'9 8.6
2016-May-28 09:33N 66°16' E 012°00'9 8.7
2016-May-28 08:33N 66°15' E 011°39'46 8.7
2016-May-28 03:14N 65°40' E 010°24'6 8.8
2016-May-28 02:33N 65°35' E 010°16'9 9.1
2016-May-28 01:33N 65°28' E 010°03'9 9.1
2016-May-28 00:33N 65°21' E 009°50'19 8.7
2016-May-27 22:25N 65°06' E 009°24'8 8.7
2016-May-27 21:33N 64°60' E 009°13'9 8.9
2016-May-27 20:33N 64°52' E 009°01'9 8.8
2016-May-27 19:33N 64°45' E 008°49'9 8.7
2016-May-27 18:32N 64°38' E 008°37'9 8.8
2016-May-27 17:33N 64°31' E 008°24'9 8.8
2016-May-27 16:33N 64°24' E 008°13'9 9.2
2016-May-27 15:33N 64°17' E 007°60'9 8.9
2016-May-27 14:33N 64°09' E 007°48'9 9.2
2016-May-27 13:33N 64°02' E 007°36'10 9.6
2016-May-27 12:33N 63°54' E 007°23'9 9.3
2016-May-27 11:33N 63°47' E 007°10'187 8.4
2016-May-26 13:16N 60°58' E 004°16'7 8.5
2016-May-26 12:30N 60°52' E 004°12'18 9.0
2016-May-26 10:31N 60°35' E 004°02'8 8.7
2016-May-26 09:33N 60°27' E 003°58'8 8.4
2016-May-26 08:33N 60°18' E 003°54'8 8.3
2016-May-26 07:34N 60°11' E 003°49'8 7.7
2016-May-26 06:34N 60°03' E 003°45'7 7.1
2016-May-26 05:33N 59°56' E 003°41'8 7.6
2016-May-26 04:33N 59°49' E 003°37'8 7.5
2016-May-26 03:33N 59°42' E 003°33'7 7.5
2016-May-26 02:33N 59°34' E 003°30'8 7.6
2016-May-26 01:33N 59°27' E 003°26'8 7.6
2016-May-26 00:33N 59°20' E 003°22'300 6.5
2016-May-24 02:33N 54°32' E 000°49'18 9.2
2016-May-24 00:32N 54°14' E 000°38'10 9.7
2016-May-23 23:30N 54°05' E 000°33'1010.1
2016-May-23 22:29N 53°55' E 000°28'1010.3
2016-May-23 21:33N 53°46' E 000°23'1010.0
2016-May-23 20:33N 53°36' E 000°20'8 8.4
2016-May-23 19:34N 53°33' E 000°07'9 9.4
2016-May-23 18:33N 53°37' W 000°08'2 2.2
2016-May-23 17:34N 53°38' W 000°11'0 0.2
2016-May-23 16:32N 53°38' W 000°12'0 0.0
2016-May-23 15:32N 53°38' W 000°12'0 0.0
2016-May-23 14:32N 53°38' W 000°12'0 0.0
2016-May-23 13:26N 53°38' W 000°12'0 0.0
2016-May-23 12:32N 53°38' W 000°12'0 0.0
2016-May-23 11:29N 53°38' W 000°12'0 0.0
2016-May-23 10:32N 53°38' W 000°12'0 0.0
2016-May-23 09:29N 53°38' W 000°12'0 0.0
2016-May-23 08:32N 53°38' W 000°12'0 0.0
2016-May-23 07:29N 53°38' W 000°12'0 0.0
2016-May-23 06:32N 53°38' W 000°12'0 0.0
2016-May-23 05:29N 53°38' W 000°12'0 0.0
2016-May-23 04:32N 53°38' W 000°12'0 0.0
2016-May-23 03:29N 53°38' W 000°12'0 0.0
2016-May-23 02:29N 53°38' W 000°12'0 0.0
2016-May-23 01:32N 53°38' W 000°12'0 0.0
2016-May-23 00:32N 53°38' W 000°12'0 0.0
2016-May-22 23:32N 53°38' W 000°12'0 0.0
2016-May-22 22:32N 53°38' W 000°12'0 0.0
2016-May-22 21:32N 53°38' W 000°12'0 0.0
2016-May-22 20:32N 53°38' W 000°12'0 0.0
2016-May-22 19:29N 53°38' W 000°12'0 0.0
2016-May-22 18:32N 53°38' W 000°12'0 0.0
2016-May-22 17:32N 53°38' W 000°12'0 0.0
2016-May-22 16:32N 53°38' W 000°12'0 0.0
2016-May-22 15:32N 53°38' W 000°12'0 0.0
2016-May-22 14:32N 53°38' W 000°12'0 0.0
2016-May-22 13:32N 53°38' W 000°12'0 0.0
2016-May-22 12:32N 53°38' W 000°12'0 0.0
2016-May-22 11:32N 53°38' W 000°12'0 0.0
2016-May-22 10:32N 53°38' W 000°12'0 0.0
2016-May-22 09:32N 53°38' W 000°12'0 0.0
2016-May-22 08:32N 53°38' W 000°12'0 0.0
2016-May-22 07:32N 53°38' W 000°12'0 0.0
2016-May-22 06:32N 53°38' W 000°12'0 0.0
2016-May-22 05:32N 53°38' W 000°12'0 0.0
2016-May-22 04:32N 53°38' W 000°12'0 0.0
2016-May-22 03:32N 53°38' W 000°12'0 0.0
2016-May-22 02:32N 53°38' W 000°12'0 0.0
2016-May-22 01:32N 53°38' W 000°12'0 0.0
2016-May-22 00:32N 53°38' W 000°12'0 0.0
2016-May-21 23:32N 53°38' W 000°12'0 0.0
2016-May-21 22:32N 53°38' W 000°12'0 0.0
2016-May-21 21:32N 53°38' W 000°12'0 0.0
2016-May-21 20:32N 53°38' W 000°12'0 0.0
2016-May-21 19:32N 53°38' W 000°12'0 0.0
2016-May-21 18:29N 53°38' W 000°12'0 0.0
2016-May-21 17:32N 53°38' W 000°12'0 0.0
2016-May-21 16:32N 53°38' W 000°12'0 0.0
2016-May-21 15:32N 53°38' W 000°12'0 0.0
2016-May-21 14:32N 53°38' W 000°12'0 0.0
2016-May-21 13:32N 53°38' W 000°12'0 0.0
2016-May-21 12:32N 53°38' W 000°12'0 0.0
2016-May-21 11:32N 53°38' W 000°12'0 0.0
2016-May-21 10:32N 53°38' W 000°12'0 0.0
2016-May-21 09:32N 53°38' W 000°12'0 0.0
2016-May-21 08:29N 53°38' W 000°12'0 0.0
2016-May-21 07:32N 53°38' W 000°12'0 0.0
2016-May-21 06:32N 53°38' W 000°12'0 0.0
2016-May-21 05:32N 53°38' W 000°12'0 0.0
2016-May-21 04:32N 53°38' W 000°12'0 0.0
2016-May-21 03:32N 53°38' W 000°12'0 0.0
2016-May-21 02:32N 53°38' W 000°12'0 0.0
2016-May-21 01:32N 53°38' W 000°12'0 0.0
2016-May-21 00:32N 53°38' W 000°12'0 0.0
2016-May-20 23:32N 53°38' W 000°12'0 0.0
2016-May-20 22:32N 53°38' W 000°12'0 0.0
2016-May-20 21:26N 53°38' W 000°12'0 0.0
2016-May-20 20:32N 53°38' W 000°12'0 0.0
2016-May-20 19:32N 53°38' W 000°12'0 0.0
2016-May-20 18:32N 53°38' W 000°12'0 0.0
2016-May-20 17:26N 53°38' W 000°12'0 0.0
2016-May-20 16:23N 53°38' W 000°12'0 0.0
2016-May-20 15:29N 53°38' W 000°12'0 0.1
2016-May-20 14:32N 53°38' W 000°12'0 0.0
2016-May-20 13:29N 53°38' W 000°12'  

Dump ship's entire track history